sensor_id;sensor_type;location;lat;lon;timestamp;temperature;humidity
29353;DHT22;16344;50.364;8.944;2022-12-18T00:00:29;-6.00;99.90
29353;DHT22;16344;50.364;8.944;2022-12-18T00:02:55;-6.10;99.90
29353;DHT22;16344;50.364;8.944;2022-12-18T00:05:21;-6.00;99.90
29353;DHT22;16344;50.364;8.944;2022-12-18T00:07:46;-6.10;99.90
29353;DHT22;16344;50.364;8.944;2022-12-18T00:10:12;-6.00;99.90
29353;DHT22;16344;50.364;8.944;2022-12-18T00:12:38;-6.30;99.90
29353;DHT22;16344;50.364;8.944;2022-12-18T00:15:03;-6.20;99.90
29353;DHT22;16344;50.364;8.944;2022-12-18T00:17:29;-6.30;99.90
29353;DHT22;16344;50.364;8.944;2022-12-18T00:19:55;-6.10;99.90
29353;DHT22;16344;50.364;8.944;2022-12-18T00:22:20;-6.10;99.90
29353;DHT22;16344;50.364;8.944;2022-12-18T00:24:46;-6.10;99.90
29353;DHT22;16344;50.364;8.944;2022-12-18T00:27:11;-6.30;99.90
29353;DHT22;16344;50.364;8.944;2022-12-18T00:29:37;-6.20;99.90
29353;DHT22;16344;50.364;8.944;2022-12-18T00:32:02;-6.10;99.90
29353;DHT22;16344;50.364;8.944;2022-12-18T00:34:28;-6.20;99.90
29353;DHT22;16344;50.364;8.944;2022-12-18T00:36:53;-6.10;99.90
29353;DHT22;16344;50.364;8.944;2022-12-18T00:39:19;-6.10;99.90
29353;DHT22;16344;50.364;8.944;2022-12-18T00:41:44;-6.20;99.90
29353;DHT22;16344;50.364;8.944;2022-12-18T00:44:28;-6.20;99.90
29353;DHT22;16344;50.364;8.944;2022-12-18T00:46:54;-6.50;99.90
29353;DHT22;16344;50.364;8.944;2022-12-18T00:49:20;-6.60;99.90
29353;DHT22;16344;50.364;8.944;2022-12-18T00:51:46;-6.60;99.90
29353;DHT22;16344;50.364;8.944;2022-12-18T00:54:11;-6.70;99.90
29353;DHT22;16344;50.364;8.944;2022-12-18T00:56:38;-6.70;99.90
29353;DHT22;16344;50.364;8.944;2022-12-18T00:59:04;-6.70;99.90
29353;DHT22;16344;50.364;8.944;2022-12-18T01:01:30;-6.70;99.90
29353;DHT22;16344;50.364;8.944;2022-12-18T01:03:56;-6.60;99.90
29353;DHT22;16344;50.364;8.944;2022-12-18T01:06:22;-6.70;99.90
29353;DHT22;16344;50.364;8.944;2022-12-18T01:08:47;-6.60;99.90
29353;DHT22;16344;50.364;8.944;2022-12-18T01:11:16;-6.50;99.90
29353;DHT22;16344;50.364;8.944;2022-12-18T01:13:43;-6.40;99.90
29353;DHT22;16344;50.364;8.944;2022-12-18T01:16:11;-6.30;99.90
29353;DHT22;16344;50.364;8.944;2022-12-18T01:18:37;-6.30;99.90
29353;DHT22;16344;50.364;8.944;2022-12-18T01:21:07;-6.30;99.90
29353;DHT22;16344;50.364;8.944;2022-12-18T01:23:33;-6.50;99.90
29353;DHT22;16344;50.364;8.944;2022-12-18T01:26:08;-6.70;99.90
29353;DHT22;16344;50.364;8.944;2022-12-18T01:28:33;-6.80;99.90
29353;DHT22;16344;50.364;8.944;2022-12-18T01:31:13;-6.70;99.90
29353;DHT22;16344;50.364;8.944;2022-12-18T01:33:38;-6.50;99.90
29353;DHT22;16344;50.364;8.944;2022-12-18T01:36:04;-6.40;99.90
29353;DHT22;16344;50.364;8.944;2022-12-18T01:38:30;-6.40;84.80
29353;DHT22;16344;50.364;8.944;2022-12-18T01:41:00;-6.50;99.90
29353;DHT22;16344;50.364;8.944;2022-12-18T01:43:55;-6.40;99.90
29353;DHT22;16344;50.364;8.944;2022-12-18T01:46:23;-6.40;99.90
29353;DHT22;16344;50.364;8.944;2022-12-18T01:48:52;-6.40;95.00
29353;DHT22;16344;50.364;8.944;2022-12-18T01:51:18;-6.40;93.40
29353;DHT22;16344;50.364;8.944;2022-12-18T01:53:45;-6.50;99.90
29353;DHT22;16344;50.364;8.944;2022-12-18T01:56:16;-6.70;99.90
29353;DHT22;16344;50.364;8.944;2022-12-18T01:59:03;-6.80;99.90
29353;DHT22;16344;50.364;8.944;2022-12-18T02:01:30;-6.70;99.90
29353;DHT22;16344;50.364;8.944;2022-12-18T02:04:21;-6.80;99.90
29353;DHT22;16344;50.364;8.944;2022-12-18T02:06:55;-6.90;99.90
29353;DHT22;16344;50.364;8.944;2022-12-18T02:09:31;-7.00;99.90
29353;DHT22;16344;50.364;8.944;2022-12-18T02:12:07;-7.00;99.90
29353;DHT22;16344;50.364;8.944;2022-12-18T02:14:47;-7.00;99.90
29353;DHT22;16344;50.364;8.944;2022-12-18T02:17:23;-7.20;99.90
29353;DHT22;16344;50.364;8.944;2022-12-18T02:20:12;-7.20;99.90
29353;DHT22;16344;50.364;8.944;2022-12-18T02:28:20;-7.00;99.90
29353;DHT22;16344;50.364;8.944;2022-12-18T02:30:49;-7.00;99.90
29353;DHT22;16344;50.364;8.944;2022-12-18T02:33:15;-7.00;99.90
29353;DHT22;16344;50.364;8.944;2022-12-18T02:35:42;-7.00;99.90
29353;DHT22;16344;50.364;8.944;2022-12-18T02:38:09;-7.00;99.90
29353;DHT22;16344;50.364;8.944;2022-12-18T02:40:38;-7.10;99.90
29353;DHT22;16344;50.364;8.944;2022-12-18T02:43:11;-7.10;99.90
29353;DHT22;16344;50.364;8.944;2022-12-18T02:46:31;-7.10;99.90
29353;DHT22;16344;50.364;8.944;2022-12-18T02:48:36;-7.20;99.90
29353;DHT22;16344;50.364;8.944;2022-12-18T02:51:24;-7.20;99.90
29353;DHT22;16344;50.364;8.944;2022-12-18T02:56:58;-6.90;99.90
29353;DHT22;16344;50.364;8.944;2022-12-18T02:59:45;-6.90;99.90
29353;DHT22;16344;50.364;8.944;2022-12-18T03:02:19;-7.00;99.90
29353;DHT22;16344;50.364;8.944;2022-12-18T03:04:55;-7.10;99.90
29353;DHT22;16344;50.364;8.944;2022-12-18T03:07:32;-7.10;99.90
29353;DHT22;16344;50.364;8.944;2022-12-18T03:10:00;-7.20;99.90
29353;DHT22;16344;50.364;8.944;2022-12-18T03:12:35;-7.20;99.90
29353;DHT22;16344;50.364;8.944;2022-12-18T03:15:17;-7.10;99.90
29353;DHT22;16344;50.364;8.944;2022-12-18T03:17:52;-7.00;99.90
29353;DHT22;16344;50.364;8.944;2022-12-18T03:20:21;-7.20;99.90
29353;DHT22;16344;50.364;8.944;2022-12-18T03:22:52;-7.20;99.90
29353;DHT22;16344;50.364;8.944;2022-12-18T03:25:19;-7.00;99.90
29353;DHT22;16344;50.364;8.944;2022-12-18T03:27:49;-7.10;99.90
29353;DHT22;16344;50.364;8.944;2022-12-18T03:30:16;-7.20;99.90
29353;DHT22;16344;50.364;8.944;2022-12-18T03:32:48;-7.00;99.90
29353;DHT22;16344;50.364;8.944;2022-12-18T03:35:22;-7.20;99.90
29353;DHT22;16344;50.364;8.944;2022-12-18T03:37:48;-7.10;99.90
29353;DHT22;16344;50.364;8.944;2022-12-18T03:40:14;-7.20;99.90
29353;DHT22;16344;50.364;8.944;2022-12-18T03:42:47;-7.20;99.90
29353;DHT22;16344;50.364;8.944;2022-12-18T03:45:27;-7.10;99.90
29353;DHT22;16344;50.364;8.944;2022-12-18T03:48:01;-7.10;99.90
29353;DHT22;16344;50.364;8.944;2022-12-18T03:50:58;-7.10;99.90
29353;DHT22;16344;50.364;8.944;2022-12-18T03:55:57;-7.20;99.90
29353;DHT22;16344;50.364;8.944;2022-12-18T03:58:25;-7.40;99.90
29353;DHT22;16344;50.364;8.944;2022-12-18T04:00:55;-7.30;99.90
29353;DHT22;16344;50.364;8.944;2022-12-18T04:03:23;-7.40;99.90
29353;DHT22;16344;50.364;8.944;2022-12-18T04:05:51;-7.30;99.90
29353;DHT22;16344;50.364;8.944;2022-12-18T04:08:18;-7.30;99.90
29353;DHT22;16344;50.364;8.944;2022-12-18T04:10:44;-7.20;99.90
29353;DHT22;16344;50.364;8.944;2022-12-18T04:13:09;-7.20;99.90
29353;DHT22;16344;50.364;8.944;2022-12-18T04:15:36;-7.30;99.90
29353;DHT22;16344;50.364;8.944;2022-12-18T04:18:02;-7.20;99.90
29353;DHT22;16344;50.364;8.944;2022-12-18T04:20:28;-7.20;99.90
29353;DHT22;16344;50.364;8.944;2022-12-18T04:22:53;-7.20;99.90
29353;DHT22;16344;50.364;8.944;2022-12-18T04:25:19;-7.30;99.90
29353;DHT22;16344;50.364;8.944;2022-12-18T04:27:44;-7.40;99.90
29353;DHT22;16344;50.364;8.944;2022-12-18T04:30:10;-7.30;99.90
29353;DHT22;16344;50.364;8.944;2022-12-18T04:32:36;-7.40;99.90
29353;DHT22;16344;50.364;8.944;2022-12-18T04:35:02;-7.40;99.90
29353;DHT22;16344;50.364;8.944;2022-12-18T04:37:29;-7.50;99.90
29353;DHT22;16344;50.364;8.944;2022-12-18T04:39:55;-7.40;99.90
29353;DHT22;16344;50.364;8.944;2022-12-18T04:42:20;-7.40;99.90
29353;DHT22;16344;50.364;8.944;2022-12-18T04:44:46;-7.40;99.90
29353;DHT22;16344;50.364;8.944;2022-12-18T04:47:11;-7.40;99.90
29353;DHT22;16344;50.364;8.944;2022-12-18T04:49:37;-7.30;99.90
29353;DHT22;16344;50.364;8.944;2022-12-18T04:52:03;-7.30;99.90
29353;DHT22;16344;50.364;8.944;2022-12-18T04:54:28;-7.30;83.20
29353;DHT22;16344;50.364;8.944;2022-12-18T04:56:54;-7.40;99.90
29353;DHT22;16344;50.364;8.944;2022-12-18T04:59:19;-7.50;99.90
29353;DHT22;16344;50.364;8.944;2022-12-18T05:01:45;-7.40;99.90
29353;DHT22;16344;50.364;8.944;2022-12-18T05:04:11;-7.40;99.90
29353;DHT22;16344;50.364;8.944;2022-12-18T05:06:36;-7.40;99.90
29353;DHT22;16344;50.364;8.944;2022-12-18T05:09:02;-7.40;99.90
29353;DHT22;16344;50.364;8.944;2022-12-18T05:11:27;-7.50;99.90
29353;DHT22;16344;50.364;8.944;2022-12-18T05:13:53;-7.40;99.90
29353;DHT22;16344;50.364;8.944;2022-12-18T05:16:18;-7.30;99.10
29353;DHT22;16344;50.364;8.944;2022-12-18T05:18:44;-7.30;99.90
29353;DHT22;16344;50.364;8.944;2022-12-18T05:21:09;-7.30;99.90
29353;DHT22;16344;50.364;8.944;2022-12-18T05:23:36;-7.40;99.90
29353;DHT22;16344;50.364;8.944;2022-12-18T05:26:03;-7.40;99.90
29353;DHT22;16344;50.364;8.944;2022-12-18T05:28:31;-7.40;99.90
29353;DHT22;16344;50.364;8.944;2022-12-18T05:30:59;-7.50;99.90
29353;DHT22;16344;50.364;8.944;2022-12-18T05:33:27;-7.50;99.90
29353;DHT22;16344;50.364;8.944;2022-12-18T05:35:58;-7.40;99.90
29353;DHT22;16344;50.364;8.944;2022-12-18T05:38:28;-7.40;99.90
29353;DHT22;16344;50.364;8.944;2022-12-18T05:40:54;-7.40;99.90
29353;DHT22;16344;50.364;8.944;2022-12-18T05:43:21;-7.40;99.90
29353;DHT22;16344;50.364;8.944;2022-12-18T05:45:49;-7.30;99.90
29353;DHT22;16344;50.364;8.944;2022-12-18T05:48:16;-7.30;99.90
29353;DHT22;16344;50.364;8.944;2022-12-18T05:50:43;-7.30;99.90
29353;DHT22;16344;50.364;8.944;2022-12-18T05:53:11;-7.30;99.90
29353;DHT22;16344;50.364;8.944;2022-12-18T05:55:38;-7.40;99.90
29353;DHT22;16344;50.364;8.944;2022-12-18T05:58:05;-7.50;99.90
29353;DHT22;16344;50.364;8.944;2022-12-18T06:00:35;-7.40;99.90
29353;DHT22;16344;50.364;8.944;2022-12-18T06:03:01;-7.30;99.90
29353;DHT22;16344;50.364;8.944;2022-12-18T06:05:27;-7.10;99.90
29353;DHT22;16344;50.364;8.944;2022-12-18T06:07:53;-7.10;99.90
29353;DHT22;16344;50.364;8.944;2022-12-18T06:10:18;-7.30;99.90
29353;DHT22;16344;50.364;8.944;2022-12-18T06:12:44;-7.20;99.90
29353;DHT22;16344;50.364;8.944;2022-12-18T06:15:10;-7.10;99.90
29353;DHT22;16344;50.364;8.944;2022-12-18T06:17:35;-7.20;99.90
29353;DHT22;16344;50.364;8.944;2022-12-18T06:20:01;-7.10;99.90
29353;DHT22;16344;50.364;8.944;2022-12-18T06:22:27;-7.00;99.90
29353;DHT22;16344;50.364;8.944;2022-12-18T06:24:52;-7.00;99.90
29353;DHT22;16344;50.364;8.944;2022-12-18T06:27:18;-7.00;99.90
29353;DHT22;16344;50.364;8.944;2022-12-18T06:29:44;-6.90;99.90
29353;DHT22;16344;50.364;8.944;2022-12-18T06:32:09;-6.90;99.90
29353;DHT22;16344;50.364;8.944;2022-12-18T06:34:37;-6.90;99.90
29353;DHT22;16344;50.364;8.944;2022-12-18T06:37:03;-7.00;99.90
29353;DHT22;16344;50.364;8.944;2022-12-18T06:39:28;-7.00;99.90
29353;DHT22;16344;50.364;8.944;2022-12-18T06:41:54;-7.00;99.90
29353;DHT22;16344;50.364;8.944;2022-12-18T06:44:20;-7.10;99.90
29353;DHT22;16344;50.364;8.944;2022-12-18T06:46:45;-7.10;99.90
29353;DHT22;16344;50.364;8.944;2022-12-18T06:49:11;-7.20;99.90
29353;DHT22;16344;50.364;8.944;2022-12-18T06:51:37;-7.30;99.90
29353;DHT22;16344;50.364;8.944;2022-12-18T06:54:03;-7.30;99.90
29353;DHT22;16344;50.364;8.944;2022-12-18T06:56:28;-7.30;99.90
29353;DHT22;16344;50.364;8.944;2022-12-18T06:58:54;-6.90;1.00
29353;DHT22;16344;50.364;8.944;2022-12-18T07:01:20;-6.60;1.00
29353;DHT22;16344;50.364;8.944;2022-12-18T07:03:46;-6.40;1.00
29353;DHT22;16344;50.364;8.944;2022-12-18T07:06:16;-6.30;1.00
29353;DHT22;16344;50.364;8.944;2022-12-18T07:08:42;-6.30;1.00
29353;DHT22;16344;50.364;8.944;2022-12-18T07:11:08;-6.20;1.00
29353;DHT22;16344;50.364;8.944;2022-12-18T07:13:34;-6.20;1.00
29353;DHT22;16344;50.364;8.944;2022-12-18T07:16:07;-6.00;1.00
29353;DHT22;16344;50.364;8.944;2022-12-18T07:18:33;-5.90;1.00
29353;DHT22;16344;50.364;8.944;2022-12-18T07:21:03;-5.90;99.90
29353;DHT22;16344;50.364;8.944;2022-12-18T07:23:28;-5.70;99.90
29353;DHT22;16344;50.364;8.944;2022-12-18T07:25:54;-5.70;99.90
29353;DHT22;16344;50.364;8.944;2022-12-18T07:28:19;-5.70;99.90
29353;DHT22;16344;50.364;8.944;2022-12-18T07:30:45;-5.80;99.90
29353;DHT22;16344;50.364;8.944;2022-12-18T07:33:10;-6.00;99.90
29353;DHT22;16344;50.364;8.944;2022-12-18T07:35:37;-6.30;93.70
29353;DHT22;16344;50.364;8.944;2022-12-18T07:38:03;-6.40;99.90
29353;DHT22;16344;50.364;8.944;2022-12-18T07:40:28;-6.50;99.90
29353;DHT22;16344;50.364;8.944;2022-12-18T07:42:54;-6.40;99.90
29353;DHT22;16344;50.364;8.944;2022-12-18T07:45:19;-6.50;99.90
29353;DHT22;16344;50.364;8.944;2022-12-18T07:47:45;-6.50;94.00
29353;DHT22;16344;50.364;8.944;2022-12-18T07:50:10;-6.50;99.90
29353;DHT22;16344;50.364;8.944;2022-12-18T07:52:36;-6.40;99.90
29353;DHT22;16344;50.364;8.944;2022-12-18T07:55:01;-6.30;99.90
29353;DHT22;16344;50.364;8.944;2022-12-18T07:57:27;-5.90;99.90
29353;DHT22;16344;50.364;8.944;2022-12-18T07:59:53;-5.60;99.90
29353;DHT22;16344;50.364;8.944;2022-12-18T08:02:18;-5.40;1.00
29353;DHT22;16344;50.364;8.944;2022-12-18T08:04:44;-5.10;1.00
29353;DHT22;16344;50.364;8.944;2022-12-18T08:07:09;-4.90;1.00
29353;DHT22;16344;50.364;8.944;2022-12-18T08:09:35;-4.90;99.90
29353;DHT22;16344;50.364;8.944;2022-12-18T08:12:00;-4.80;99.90
29353;DHT22;16344;50.364;8.944;2022-12-18T08:14:26;-4.80;99.90
29353;DHT22;16344;50.364;8.944;2022-12-18T08:16:51;-4.80;99.90
29353;DHT22;16344;50.364;8.944;2022-12-18T08:19:17;-4.70;99.90
29353;DHT22;16344;50.364;8.944;2022-12-18T08:21:42;-4.60;99.90
29353;DHT22;16344;50.364;8.944;2022-12-18T08:24:09;-4.50;99.90
29353;DHT22;16344;50.364;8.944;2022-12-18T08:26:35;-4.40;99.90
29353;DHT22;16344;50.364;8.944;2022-12-18T08:29:00;-4.20;99.90
29353;DHT22;16344;50.364;8.944;2022-12-18T08:31:28;-4.10;99.90
29353;DHT22;16344;50.364;8.944;2022-12-18T08:33:54;-4.00;99.90
29353;DHT22;16344;50.364;8.944;2022-12-18T08:36:21;-4.10;99.90
29353;DHT22;16344;50.364;8.944;2022-12-18T08:38:47;-4.40;99.90
29353;DHT22;16344;50.364;8.944;2022-12-18T08:41:14;-4.40;99.90
29353;DHT22;16344;50.364;8.944;2022-12-18T08:43:40;-4.30;99.90
29353;DHT22;16344;50.364;8.944;2022-12-18T08:46:26;-4.30;99.90
29353;DHT22;16344;50.364;8.944;2022-12-18T08:48:53;-4.30;99.90
29353;DHT22;16344;50.364;8.944;2022-12-18T08:51:19;-4.20;99.90
29353;DHT22;16344;50.364;8.944;2022-12-18T08:53:45;-4.10;99.90
29353;DHT22;16344;50.364;8.944;2022-12-18T08:56:11;-4.00;99.90
29353;DHT22;16344;50.364;8.944;2022-12-18T08:58:37;-3.80;99.90
29353;DHT22;16344;50.364;8.944;2022-12-18T09:01:04;-3.70;99.90
29353;DHT22;16344;50.364;8.944;2022-12-18T09:03:30;-3.60;99.90
29353;DHT22;16344;50.364;8.944;2022-12-18T09:05:56;-3.50;99.90
29353;DHT22;16344;50.364;8.944;2022-12-18T09:08:21;-3.40;99.90
29353;DHT22;16344;50.364;8.944;2022-12-18T09:10:48;-3.30;99.90
29353;DHT22;16344;50.364;8.944;2022-12-18T09:13:15;-3.30;99.90
29353;DHT22;16344;50.364;8.944;2022-12-18T09:15:42;-3.20;99.90
29353;DHT22;16344;50.364;8.944;2022-12-18T09:18:08;-3.20;99.90
29353;DHT22;16344;50.364;8.944;2022-12-18T09:20:35;-3.10;99.90
29353;DHT22;16344;50.364;8.944;2022-12-18T09:23:01;-3.00;99.90
29353;DHT22;16344;50.364;8.944;2022-12-18T09:25:28;-3.00;99.90
29353;DHT22;16344;50.364;8.944;2022-12-18T09:27:57;-2.90;99.90
29353;DHT22;16344;50.364;8.944;2022-12-18T09:30:22;-2.90;99.90
29353;DHT22;16344;50.364;8.944;2022-12-18T09:32:48;-2.90;99.90
29353;DHT22;16344;50.364;8.944;2022-12-18T09:35:13;-2.80;99.90
29353;DHT22;16344;50.364;8.944;2022-12-18T09:37:39;-2.80;99.90
29353;DHT22;16344;50.364;8.944;2022-12-18T09:40:05;-2.50;99.90
29353;DHT22;16344;50.364;8.944;2022-12-18T09:42:30;-2.30;99.90
29353;DHT22;16344;50.364;8.944;2022-12-18T09:44:57;-2.20;99.90
29353;DHT22;16344;50.364;8.944;2022-12-18T09:47:27;-2.10;99.90
29353;DHT22;16344;50.364;8.944;2022-12-18T09:49:58;-2.00;99.90
29353;DHT22;16344;50.364;8.944;2022-12-18T09:52:27;-2.00;99.90
29353;DHT22;16344;50.364;8.944;2022-12-18T09:55:08;-1.90;99.90
29353;DHT22;16344;50.364;8.944;2022-12-18T09:57:42;-2.00;99.90
29353;DHT22;16344;50.364;8.944;2022-12-18T10:00:22;-2.20;99.90
29353;DHT22;16344;50.364;8.944;2022-12-18T10:02:49;-2.20;99.90
29353;DHT22;16344;50.364;8.944;2022-12-18T10:05:19;-2.20;99.90
29353;DHT22;16344;50.364;8.944;2022-12-18T10:11:22;-2.10;99.90
29353;DHT22;16344;50.364;8.944;2022-12-18T10:13:53;-2.20;99.90
29353;DHT22;16344;50.364;8.944;2022-12-18T10:17:07;-2.20;99.90
29353;DHT22;16344;50.364;8.944;2022-12-18T10:22:24;-2.00;99.90
29353;DHT22;16344;50.364;8.944;2022-12-18T10:25:18;-2.00;99.90
29353;DHT22;16344;50.364;8.944;2022-12-18T10:27:46;-2.00;99.90
29353;DHT22;16344;50.364;8.944;2022-12-18T10:30:16;-2.00;99.90
29353;DHT22;16344;50.364;8.944;2022-12-18T10:32:42;-2.00;99.90
29353;DHT22;16344;50.364;8.944;2022-12-18T10:35:17;-2.00;99.90
29353;DHT22;16344;50.364;8.944;2022-12-18T10:38:41;-2.00;99.90
29353;DHT22;16344;50.364;8.944;2022-12-18T10:41:05;-1.90;99.90
29353;DHT22;16344;50.364;8.944;2022-12-18T10:43:36;-1.90;99.90
29353;DHT22;16344;50.364;8.944;2022-12-18T10:48:32;-2.00;99.90
29353;DHT22;16344;50.364;8.944;2022-12-18T10:50:58;-2.10;99.90
29353;DHT22;16344;50.364;8.944;2022-12-18T10:53:28;-2.20;99.90
29353;DHT22;16344;50.364;8.944;2022-12-18T10:55:57;-2.30;99.90
29353;DHT22;16344;50.364;8.944;2022-12-18T10:58:36;-2.30;99.90
29353;DHT22;16344;50.364;8.944;2022-12-18T11:01:16;-2.30;99.90
29353;DHT22;16344;50.364;8.944;2022-12-18T11:03:45;-2.40;99.90
29353;DHT22;16344;50.364;8.944;2022-12-18T11:06:19;-2.60;99.90
29353;DHT22;16344;50.364;8.944;2022-12-18T11:09:20;-2.60;99.90
29353;DHT22;16344;50.364;8.944;2022-12-18T11:11:54;-2.60;99.90
29353;DHT22;16344;50.364;8.944;2022-12-18T11:14:27;-2.60;99.90
29353;DHT22;16344;50.364;8.944;2022-12-18T11:16:54;-2.70;99.90
29353;DHT22;16344;50.364;8.944;2022-12-18T11:21:49;-2.50;99.90
29353;DHT22;16344;50.364;8.944;2022-12-18T11:24:34;-2.50;99.90
29353;DHT22;16344;50.364;8.944;2022-12-18T11:27:02;-2.40;99.90
29353;DHT22;16344;50.364;8.944;2022-12-18T11:29:35;-2.40;99.90
29353;DHT22;16344;50.364;8.944;2022-12-18T11:34:47;-2.50;99.90
29353;DHT22;16344;50.364;8.944;2022-12-18T11:37:15;-2.60;99.90
29353;DHT22;16344;50.364;8.944;2022-12-18T11:40:01;-2.70;99.90
29353;DHT22;16344;50.364;8.944;2022-12-18T11:42:48;-2.70;99.90
29353;DHT22;16344;50.364;8.944;2022-12-18T11:45:29;-2.80;99.90
29353;DHT22;16344;50.364;8.944;2022-12-18T11:50:49;-2.80;99.90
29353;DHT22;16344;50.364;8.944;2022-12-18T11:53:17;-2.70;99.90
29353;DHT22;16344;50.364;8.944;2022-12-18T11:56:00;-2.70;99.90
29353;DHT22;16344;50.364;8.944;2022-12-18T12:01:23;-2.60;99.90
29353;DHT22;16344;50.364;8.944;2022-12-18T12:07:34;-2.60;99.90
29353;DHT22;16344;50.364;8.944;2022-12-18T12:10:27;-2.60;99.90
29353;DHT22;16344;50.364;8.944;2022-12-18T12:21:06;-2.70;99.90
29353;DHT22;16344;50.364;8.944;2022-12-18T12:24:04;-2.70;99.90
29353;DHT22;16344;50.364;8.944;2022-12-18T12:26:34;-2.70;99.90
29353;DHT22;16344;50.364;8.944;2022-12-18T12:32:28;-2.70;99.90
29353;DHT22;16344;50.364;8.944;2022-12-18T12:40:52;-2.70;99.90
29353;DHT22;16344;50.364;8.944;2022-12-18T12:43:42;-2.80;99.90
29353;DHT22;16344;50.364;8.944;2022-12-18T12:46:11;-2.80;99.90
29353;DHT22;16344;50.364;8.944;2022-12-18T12:48:44;-2.90;99.90
29353;DHT22;16344;50.364;8.944;2022-12-18T12:53:44;-2.90;99.90
29353;DHT22;16344;50.364;8.944;2022-12-18T12:56:12;-3.00;99.90
29353;DHT22;16344;50.364;8.944;2022-12-18T12:59:04;-3.10;99.90
29353;DHT22;16344;50.364;8.944;2022-12-18T13:01:40;-3.30;99.90
29353;DHT22;16344;50.364;8.944;2022-12-18T13:09:23;-3.50;99.90
29353;DHT22;16344;50.364;8.944;2022-12-18T13:11:49;-3.40;99.90
29353;DHT22;16344;50.364;8.944;2022-12-18T13:14:38;-3.40;99.90
29353;DHT22;16344;50.364;8.944;2022-12-18T13:19:49;-3.40;99.90
29353;DHT22;16344;50.364;8.944;2022-12-18T13:22:31;-3.50;99.90
29353;DHT22;16344;50.364;8.944;2022-12-18T13:24:59;-3.50;99.90
29353;DHT22;16344;50.364;8.944;2022-12-18T13:46:03;-3.80;99.90
29353;DHT22;16344;50.364;8.944;2022-12-18T13:48:33;-3.90;1.00
29353;DHT22;16344;50.364;8.944;2022-12-18T13:51:07;-3.90;1.00
29353;DHT22;16344;50.364;8.944;2022-12-18T13:53:42;-3.90;1.00
29353;DHT22;16344;50.364;8.944;2022-12-18T13:56:15;-3.80;99.90
29353;DHT22;16344;50.364;8.944;2022-12-18T13:58:44;-3.80;99.90
29353;DHT22;16344;50.364;8.944;2022-12-18T14:01:22;-3.80;99.90
29353;DHT22;16344;50.364;8.944;2022-12-18T14:03:48;-3.80;1.00
29353;DHT22;16344;50.364;8.944;2022-12-18T14:06:13;-3.80;1.00
29353;DHT22;16344;50.364;8.944;2022-12-18T14:08:41;-3.80;1.00
29353;DHT22;16344;50.364;8.944;2022-12-18T14:11:19;-3.80;1.00
29353;DHT22;16344;50.364;8.944;2022-12-18T14:13:46;-3.80;1.00
29353;DHT22;16344;50.364;8.944;2022-12-18T14:16:14;-3.70;1.00
29353;DHT22;16344;50.364;8.944;2022-12-18T14:18:52;-3.70;1.00
29353;DHT22;16344;50.364;8.944;2022-12-18T14:21:22;-3.60;1.00
29353;DHT22;16344;50.364;8.944;2022-12-18T14:23:48;-3.60;1.00
29353;DHT22;16344;50.364;8.944;2022-12-18T14:28:46;-3.60;99.90
29353;DHT22;16344;50.364;8.944;2022-12-18T14:31:19;-3.70;99.90
29353;DHT22;16344;50.364;8.944;2022-12-18T14:33:45;-3.70;99.90
29353;DHT22;16344;50.364;8.944;2022-12-18T14:36:20;-3.70;1.00
29353;DHT22;16344;50.364;8.944;2022-12-18T14:38:54;-3.80;99.90
29353;DHT22;16344;50.364;8.944;2022-12-18T14:41:21;-3.90;1.00
29353;DHT22;16344;50.364;8.944;2022-12-18T14:43:49;-3.90;1.00
29353;DHT22;16344;50.364;8.944;2022-12-18T14:48:59;-3.90;1.00
29353;DHT22;16344;50.364;8.944;2022-12-18T14:51:28;-3.90;1.00
29353;DHT22;16344;50.364;8.944;2022-12-18T14:53:58;-3.80;1.00
29353;DHT22;16344;50.364;8.944;2022-12-18T14:58:59;-3.60;1.00
29353;DHT22;16344;50.364;8.944;2022-12-18T15:04:37;-3.60;1.00
29353;DHT22;16344;50.364;8.944;2022-12-18T15:09:38;-3.60;1.00
29353;DHT22;16344;50.364;8.944;2022-12-18T15:12:04;-3.50;1.00
29353;DHT22;16344;50.364;8.944;2022-12-18T15:14:39;-3.50;1.00
29353;DHT22;16344;50.364;8.944;2022-12-18T15:17:26;-3.50;1.00
29353;DHT22;16344;50.364;8.944;2022-12-18T15:19:58;-3.60;1.00
29353;DHT22;16344;50.364;8.944;2022-12-18T15:22:29;-3.70;1.00
29353;DHT22;16344;50.364;8.944;2022-12-18T15:24:56;-3.80;1.00
29353;DHT22;16344;50.364;8.944;2022-12-18T15:27:29;-3.80;1.00
29353;DHT22;16344;50.364;8.944;2022-12-18T15:30:17;-3.80;1.00
29353;DHT22;16344;50.364;8.944;2022-12-18T15:32:44;-3.80;1.00
29353;DHT22;16344;50.364;8.944;2022-12-18T15:35:16;-3.80;1.00
29353;DHT22;16344;50.364;8.944;2022-12-18T15:37:42;-3.80;1.00
29353;DHT22;16344;50.364;8.944;2022-12-18T15:40:19;-3.80;1.00
29353;DHT22;16344;50.364;8.944;2022-12-18T15:42:45;-3.70;1.00
29353;DHT22;16344;50.364;8.944;2022-12-18T15:45:30;-3.80;1.00
29353;DHT22;16344;50.364;8.944;2022-12-18T15:47:56;-3.70;1.00
29353;DHT22;16344;50.364;8.944;2022-12-18T15:50:22;-3.60;1.00
29353;DHT22;16344;50.364;8.944;2022-12-18T15:52:49;-3.60;1.00
29353;DHT22;16344;50.364;8.944;2022-12-18T15:55:18;-3.50;1.00
29353;DHT22;16344;50.364;8.944;2022-12-18T15:58:07;-3.50;99.90
29353;DHT22;16344;50.364;8.944;2022-12-18T16:00:34;-3.40;99.90
29353;DHT22;16344;50.364;8.944;2022-12-18T16:03:00;-3.40;99.90
29353;DHT22;16344;50.364;8.944;2022-12-18T16:05:27;-3.40;99.90
29353;DHT22;16344;50.364;8.944;2022-12-18T16:07:52;-3.50;99.90
29353;DHT22;16344;50.364;8.944;2022-12-18T16:10:19;-3.40;99.90
29353;DHT22;16344;50.364;8.944;2022-12-18T16:12:44;-3.40;1.00
29353;DHT22;16344;50.364;8.944;2022-12-18T16:15:13;-3.40;99.90
29353;DHT22;16344;50.364;8.944;2022-12-18T16:17:39;-3.40;99.90
29353;DHT22;16344;50.364;8.944;2022-12-18T16:20:11;-3.40;99.90
29353;DHT22;16344;50.364;8.944;2022-12-18T16:22:37;-3.50;1.00
29353;DHT22;16344;50.364;8.944;2022-12-18T16:25:02;-3.40;1.00
29353;DHT22;16344;50.364;8.944;2022-12-18T16:27:28;-3.40;1.00
29353;DHT22;16344;50.364;8.944;2022-12-18T16:29:53;-3.30;1.00
29353;DHT22;16344;50.364;8.944;2022-12-18T16:32:20;-3.30;1.00
29353;DHT22;16344;50.364;8.944;2022-12-18T16:34:46;-3.30;1.00
29353;DHT22;16344;50.364;8.944;2022-12-18T16:37:14;-3.40;1.00
29353;DHT22;16344;50.364;8.944;2022-12-18T16:39:40;-3.40;1.00
29353;DHT22;16344;50.364;8.944;2022-12-18T16:42:18;-3.30;1.00
29353;DHT22;16344;50.364;8.944;2022-12-18T16:44:45;-3.30;1.00
29353;DHT22;16344;50.364;8.944;2022-12-18T16:47:11;-3.20;1.00
29353;DHT22;16344;50.364;8.944;2022-12-18T16:49:37;-3.20;1.00
29353;DHT22;16344;50.364;8.944;2022-12-18T16:52:04;-3.20;99.90
29353;DHT22;16344;50.364;8.944;2022-12-18T16:54:29;-3.10;99.90
29353;DHT22;16344;50.364;8.944;2022-12-18T16:56:56;-3.20;99.90
29353;DHT22;16344;50.364;8.944;2022-12-18T16:59:22;-3.30;1.00
29353;DHT22;16344;50.364;8.944;2022-12-18T17:01:47;-3.30;1.00
29353;DHT22;16344;50.364;8.944;2022-12-18T17:04:13;-3.30;1.00
29353;DHT22;16344;50.364;8.944;2022-12-18T17:06:41;-3.30;1.00
29353;DHT22;16344;50.364;8.944;2022-12-18T17:09:11;-3.20;1.00
29353;DHT22;16344;50.364;8.944;2022-12-18T17:11:36;-3.20;1.00
29353;DHT22;16344;50.364;8.944;2022-12-18T17:14:10;-3.20;1.00
29353;DHT22;16344;50.364;8.944;2022-12-18T17:16:37;-3.10;1.00
29353;DHT22;16344;50.364;8.944;2022-12-18T17:19:03;-3.10;1.00
29353;DHT22;16344;50.364;8.944;2022-12-18T17:21:29;-3.00;1.00
29353;DHT22;16344;50.364;8.944;2022-12-18T17:23:54;-3.00;1.00